Ship Status Report: callsign SMTGJY

sailwx.info

Track history (hours):
 
Tides and Currents Weather Stations Pressure Air Temp Water Temp Dewpoint Dewpoint Depression Visibility Wind Speed Wind Dir Waves Ship Positions

Callsign SMTGJY (name unknown)

Last reported at 2018-Apr-23 00:00 UTC. Time now 2018-May-25 01:07 UTC.
Position N 47°36' W 122°25'.
Warning: this ship's position is 32 days out of date.

Date/timePositionNaut miles runAvg speedWind from/ knotsBaromVisibWave heightAir tempDewpointWater temp
2018-Apr-23 00:00N 47°36' W 122°25'1 1.5
2018-Apr-22 23:30N 47°35' W 122°25'4 8.5
2018-Apr-22 22:59N 47°34' W 122°32'9 2.0
2018-Apr-22 18:20N 47°44' W 122°32'3 8.5
2018-Apr-22 18:01N 47°45' W 122°28'4 8.4
2018-Apr-22 17:29N 47°49' W 122°29'4 8.4
2018-Apr-22 17:00N 47°53' W 122°30'2 0.0
2018-Apr-20 21:37N 47°54' W 122°31'1 9.5
2018-Apr-20 21:30N 47°53' W 122°31'5 9.5
2018-Apr-20 21:00N 47°49' W 122°28'5 9.2
2018-Apr-20 20:31N 47°45' W 122°26'4 7.3
2018-Apr-20 20:01N 47°41' W 122°24'0 0.6
2018-Apr-20 19:28N 47°41' W 122°24'0 0.0
2018-Apr-20 18:58N 47°41' W 122°24'0 0.0
2018-Apr-20 18:28N 47°41' W 122°24'0 0.0
2018-Apr-20 17:58N 47°41' W 122°24'0 0.0
2018-Apr-20 17:28N 47°41' W 122°24'0 0.0
2018-Apr-20 16:58N 47°41' W 122°24'0 0.0
2018-Apr-20 16:28N 47°41' W 122°24'0 0.0
2018-Apr-20 15:58N 47°41' W 122°24'0 0.0
2018-Apr-20 15:28N 47°41' W 122°24'0 0.0
2018-Apr-20 14:58N 47°41' W 122°24'0 0.0
2018-Apr-20 14:29N 47°41' W 122°24'0 0.0
2018-Apr-20 13:59N 47°41' W 122°24'0 0.0
2018-Apr-20 13:29N 47°41' W 122°24'0 0.0
2018-Apr-20 12:59N 47°41' W 122°24'0 0.0
2018-Apr-20 12:29N 47°41' W 122°24'0 0.0
2018-Apr-20 11:59N 47°41' W 122°24'0 0.0
2018-Apr-20 11:29N 47°41' W 122°24'0 0.0
2018-Apr-20 10:59N 47°41' W 122°24'0 0.0
2018-Apr-20 10:29N 47°41' W 122°24'0 0.0
2018-Apr-20 09:59N 47°41' W 122°24'0 0.0
2018-Apr-20 09:29N 47°41' W 122°24'0 0.0
2018-Apr-20 08:59N 47°41' W 122°24'0 0.0
2018-Apr-20 08:29N 47°41' W 122°24'0 0.0
2018-Apr-20 07:59N 47°41' W 122°24'0 0.0
2018-Apr-20 07:29N 47°41' W 122°24'0 0.0
2018-Apr-20 06:56N 47°41' W 122°24'0 0.0
2018-Apr-20 06:29N 47°41' W 122°24'0 0.0
2018-Apr-20 05:59N 47°41' W 122°24'0 0.0
2018-Apr-20 05:29N 47°41' W 122°24'0 0.0
2018-Apr-20 04:59N 47°41' W 122°24'0 0.0
2018-Apr-20 04:29N 47°41' W 122°24'0 0.0
2018-Apr-20 03:59N 47°41' W 122°24'0 0.0
2018-Apr-20 03:29N 47°41' W 122°24'0 0.0
2018-Apr-20 02:59N 47°41' W 122°24'0 0.0
2018-Apr-20 02:29N 47°41' W 122°24'0 0.0
2018-Apr-20 01:56N 47°41' W 122°24'0 0.0
2018-Apr-20 01:29N 47°41' W 122°24'0 0.0
2018-Apr-20 00:59N 47°41' W 122°24'0 0.0
2018-Apr-20 00:29N 47°41' W 122°24'0 0.0
2018-Apr-19 23:59N 47°41' W 122°24'0 0.0
2018-Apr-19 23:29N 47°41' W 122°24'0 0.0
2018-Apr-19 22:59N 47°41' W 122°24'0 0.0
2018-Apr-19 22:29N 47°41' W 122°24'0 0.0
2018-Apr-19 21:59N 47°41' W 122°24'0 0.0
2018-Apr-19 21:29N 47°41' W 122°24'0 0.0
2018-Apr-19 20:59N 47°41' W 122°24'0 0.0
2018-Apr-19 20:29N 47°41' W 122°24'0 0.0
2018-Apr-19 19:59N 47°41' W 122°24'0 0.0
2018-Apr-19 19:29N 47°41' W 122°24'0 0.0
2018-Apr-19 18:59N 47°41' W 122°24'0 0.0
2018-Apr-19 18:29N 47°41' W 122°24'0 0.0
2018-Apr-19 17:59N 47°41' W 122°24'0 0.0
2018-Apr-19 17:29N 47°41' W 122°24'0 0.0
2018-Apr-19 16:59N 47°41' W 122°24'0 0.0
2018-Apr-19 16:29N 47°41' W 122°24'0 0.0
2018-Apr-19 15:59N 47°41' W 122°24'0 0.0
2018-Apr-19 15:26N 47°41' W 122°24'0 0.0
2018-Apr-19 14:59N 47°41' W 122°24'0 0.0
2018-Apr-19 14:29N 47°41' W 122°24'0 0.0
2018-Apr-19 13:59N 47°41' W 122°24'0 0.0
2018-Apr-19 13:29N 47°41' W 122°24'0 0.0
2018-Apr-19 12:59N 47°41' W 122°24'0 0.0
2018-Apr-19 12:29N 47°41' W 122°24'0 0.0
2018-Apr-19 11:56N 47°41' W 122°24'0 0.0
2018-Apr-19 11:29N 47°41' W 122°24'0 0.0
2018-Apr-19 10:59N 47°41' W 122°24'0 0.0
2018-Apr-19 10:29N 47°41' W 122°24'0 0.0
2018-Apr-19 09:59N 47°41' W 122°24'0 0.0
2018-Apr-19 09:29N 47°41' W 122°24'0 0.0
2018-Apr-19 08:59N 47°41' W 122°24'0 0.0
2018-Apr-19 08:29N 47°41' W 122°24'0 0.0
2018-Apr-19 07:59N 47°41' W 122°24'0 0.0
2018-Apr-19 07:29N 47°41' W 122°24'0 0.0
2018-Apr-19 06:59N 47°41' W 122°24'0 0.0
2018-Apr-19 06:29N 47°41' W 122°24'0 0.0
2018-Apr-19 05:59N 47°41' W 122°24'0 0.0
2018-Apr-19 05:26N 47°41' W 122°24'0 0.0
2018-Apr-19 04:59N 47°41' W 122°24'0 0.0
2018-Apr-19 04:29N 47°41' W 122°24'0 0.0
2018-Apr-19 03:59N 47°41' W 122°24'0 0.0
2018-Apr-19 03:29N 47°41' W 122°24'0 0.0
2018-Apr-19 02:59N 47°41' W 122°24'0 0.0
2018-Apr-19 02:29N 47°41' W 122°24'0 0.0
2018-Apr-19 01:59N 47°41' W 122°24'0 0.0
2018-Apr-19 01:29N 47°41' W 122°24'0 0.0
2018-Apr-19 00:59N 47°41' W 122°24'0 0.0
2018-Apr-19 00:29N 47°41' W 122°24'0 0.0
2018-Apr-18 23:59N 47°41' W 122°24'0 0.0
2018-Apr-18 23:29N 47°41' W 122°24'0 0.0
2018-Apr-18 22:59N 47°41' W 122°24'0 0.0
2018-Apr-18 22:29N 47°41' W 122°24'0 0.0
2018-Apr-18 21:59N 47°41' W 122°24'0 0.0
2018-Apr-18 21:29N 47°41' W 122°24'0 0.0
2018-Apr-18 20:59N 47°41' W 122°24'0 0.0
2018-Apr-18 20:29N 47°41' W 122°24'0 0.0
2018-Apr-18 19:59N 47°41' W 122°24'0 0.0
2018-Apr-18 19:29N 47°41' W 122°24'0 0.0
2018-Apr-18 18:59N 47°41' W 122°24'0 0.0
2018-Apr-18 18:29N 47°41' W 122°24'0 0.0
2018-Apr-18 17:59N 47°41' W 122°24'0 0.0
2018-Apr-18 17:26N 47°41' W 122°24'0 0.0
2018-Apr-18 16:59N 47°41' W 122°24'0 0.0
2018-Apr-18 16:29N 47°41' W 122°24'0 0.0
2018-Apr-18 15:59N 47°41' W 122°24'0 0.0
2018-Apr-18 15:29N 47°41' W 122°24'0 0.0
2018-Apr-18 14:59N 47°41' W 122°24'0 0.0
2018-Apr-18 14:26N 47°41' W 122°24'0 0.0
2018-Apr-18 13:56N 47°41' W 122°24'0 0.0
2018-Apr-18 13:26N 47°41' W 122°24'0 0.0
2018-Apr-18 12:59N 47°41' W 122°24'0 0.0
2018-Apr-18 12:29N 47°41' W 122°24'0 0.0
2018-Apr-18 11:59N 47°41' W 122°24'0 0.0
2018-Apr-18 11:29N 47°41' W 122°24'0 0.0
2018-Apr-18 10:59N 47°41' W 122°24'0 0.0
2018-Apr-18 10:29N 47°41' W 122°24'0 0.0
2018-Apr-18 09:59N 47°41' W 122°24'0 0.0
2018-Apr-18 09:29N 47°41' W 122°24'0 0.0
2018-Apr-18 08:59N 47°41' W 122°24'0 0.0
2018-Apr-18 08:29N 47°41' W 122°24'0 0.0
2018-Apr-18 07:59N 47°41' W 122°24'0 0.0
2018-Apr-18 07:29N 47°41' W 122°24'0 0.0
2018-Apr-18 06:59N 47°41' W 122°24'0 0.0
2018-Apr-18 06:29N 47°41' W 122°24'0 0.0
2018-Apr-18 05:59N 47°41' W 122°24'0 0.0
2018-Apr-18 05:29N 47°41' W 122°24'0 0.0
2018-Apr-18 04:59N 47°41' W 122°24'0 0.0
2018-Apr-18 04:29N 47°41' W 122°24'0 0.0
2018-Apr-18 03:59N 47°41' W 122°24'0 0.0
2018-Apr-18 03:29N 47°41' W 122°24'0 0.0
2018-Apr-18 02:59N 47°41' W 122°24'0 0.0
2018-Apr-18 02:29N 47°41' W 122°24'0 0.0
2018-Apr-18 01:59N 47°41' W 122°24'0 0.0
2018-Apr-18 01:29N 47°41' W 122°24'0 0.0
2018-Apr-18 00:59N 47°41' W 122°24'0 0.0
2018-Apr-18 00:29N 47°41' W 122°24'0 0.0
2018-Apr-17 23:59N 47°41' W 122°24'0 0.0
2018-Apr-17 23:29N 47°41' W 122°24'0 0.0
2018-Apr-17 22:59N 47°41' W 122°24'0 0.0
2018-Apr-17 22:29N 47°41' W 122°24'0 0.0
2018-Apr-17 21:59N 47°41' W 122°24'0 0.0
2018-Apr-17 21:29N 47°41' W 122°24'0 0.0
2018-Apr-17 20:59N 47°41' W 122°24'0 0.0
2018-Apr-17 20:29N 47°41' W 122°24'0 0.0
2018-Apr-17 19:59N 47°41' W 122°24'0 0.0
2018-Apr-17 19:29N 47°41' W 122°24'0 0.0
2018-Apr-17 18:59N 47°41' W 122°24'0 0.0
2018-Apr-17 18:29N 47°41' W 122°24'0 0.0
2018-Apr-17 17:59N 47°41' W 122°24'0 0.0
2018-Apr-17 17:29N 47°41' W 122°24'0 0.0
2018-Apr-17 16:59N 47°41' W 122°24'0 0.0
2018-Apr-17 16:29N 47°41' W 122°24'0 0.0
2018-Apr-17 15:56N 47°41' W 122°24'0 0.0
2018-Apr-17 15:29N 47°41' W 122°24'0 0.0
2018-Apr-17 14:59N 47°41' W 122°24'0 0.0
2018-Apr-17 14:29N 47°41' W 122°24'0 0.0
2018-Apr-17 13:59N 47°41' W 122°24'0 0.0
2018-Apr-17 13:28N 47°41' W 122°24'0 0.0
2018-Apr-17 12:49N 47°41' W 122°24'0 0.0
2018-Apr-17 12:28N 47°41' W 122°24'0 0.0
2018-Apr-17 11:58N 47°41' W 122°24'0 0.0
2018-Apr-17 11:29N 47°41' W 122°24'0 0.0
2018-Apr-17 10:59N 47°41' W 122°24'0 0.0
2018-Apr-17 10:29N 47°41' W 122°24'0 0.0
2018-Apr-17 09:59N 47°41' W 122°24'0 0.0
2018-Apr-17 09:29N 47°41' W 122°24'0 0.0
2018-Apr-17 08:59N 47°41' W 122°24'0 0.0
2018-Apr-17 08:29N 47°41' W 122°24'0 0.0
2018-Apr-17 07:59N 47°41' W 122°24'0 0.0
2018-Apr-17 07:29N 47°41' W 122°24'0 0.0
2018-Apr-17 06:58N 47°41' W 122°24'0 0.0
2018-Apr-17 06:28N 47°41' W 122°24'0 0.0
2018-Apr-17 05:59N 47°41' W 122°24'0 0.0
2018-Apr-17 05:29N 47°41' W 122°24'0 0.0
2018-Apr-17 04:59N 47°41' W 122°24'0 0.0
2018-Apr-17 04:29N 47°41' W 122°24'0 0.0
2018-Apr-17 03:59N 47°41' W 122°24'0 0.0
2018-Apr-17 03:29N 47°41' W 122°24'0 0.0
2018-Apr-17 02:59N 47°41' W 122°24'0 0.0
2018-Apr-17 02:29N 47°41' W 122°24'0 0.0
2018-Apr-17 01:59N 47°41' W 122°24'0 0.0
2018-Apr-17 01:29N 47°41' W 122°24'0 0.0
2018-Apr-17 00:59N 47°41' W 122°24'0 0.0
2018-Apr-17 00:29N 47°41' W 122°24'0 0.0
2018-Apr-16 23:59N 47°41' W 122°24'0 0.0
2018-Apr-16 23:29N 47°41' W 122°24'0 0.0
2018-Apr-16 22:59N 47°41' W 122°24'0 0.0
2018-Apr-16 22:29N 47°41' W 122°24'0 0.0
2018-Apr-16 21:59N 47°41' W 122°24'0 0.0
2018-Apr-16 21:29N 47°41' W 122°24'0 0.0
2018-Apr-16 20:59N 47°41' W 122°24'0 0.0
2018-Apr-16 20:29N 47°41' W 122°24'0 0.0
2018-Apr-16 19:59N 47°41' W 122°24'0 0.0
2018-Apr-16 19:29N 47°41' W 122°24'0 0.0
2018-Apr-16 18:59N 47°41' W 122°24'0 0.0
2018-Apr-16 18:29N 47°41' W 122°24'0 0.0
2018-Apr-16 17:59N 47°41' W 122°24'0 0.0
2018-Apr-16 17:29N 47°41' W 122°24'0 0.0
2018-Apr-16 16:59N 47°41' W 122°24'0 0.0
2018-Apr-16 16:29N 47°41' W 122°24'0 0.0
2018-Apr-16 15:59N 47°41' W 122°24'0 0.0
2018-Apr-16 15:29N 47°41' W 122°24'0 0.0
2018-Apr-16 14:59N 47°41' W 122°24'0 0.0
2018-Apr-16 14:29N 47°41' W 122°24'0 0.0
2018-Apr-16 13:59N 47°41' W 122°24'0 0.0
2018-Apr-16 13:29N 47°41' W 122°24'0 0.0
2018-Apr-16 12:59N 47°41' W 122°24'0 0.0
2018-Apr-16 12:29N 47°41' W 122°24'0 0.0
2018-Apr-16 11:56N 47°41' W 122°24'0 0.0
2018-Apr-16 11:29N 47°41' W 122°24'0 0.0
2018-Apr-16 10:59N 47°41' W 122°24'0 0.0
2018-Apr-16 10:29N 47°41' W 122°24'0 0.0
2018-Apr-16 09:59N 47°41' W 122°24'0 0.0
2018-Apr-16 09:29N 47°41' W 122°24'0 0.0
2018-Apr-16 08:59N 47°41' W 122°24'0 0.0
2018-Apr-16 08:29N 47°41' W 122°24'0 0.0
2018-Apr-16 07:56N 47°41' W 122°24'0 0.0
2018-Apr-16 07:29N 47°41' W 122°24'0 0.0
2018-Apr-16 07:00N 47°41' W 122°24'0 0.0
2018-Apr-16 06:24N 47°41' W 122°24'0 0.0
2018-Apr-16 06:00N 47°41' W 122°24'0 0.0
2018-Apr-16 05:30N 47°41' W 122°24'1 1.8
2018-Apr-16 04:58N 47°40' W 122°24'2 3.9
2018-Apr-16 04:30N 47°39' W 122°21'1 2.0
2018-Apr-16 03:49N 47°38' W 122°20'1 3.6
2018-Apr-16 03:30N 47°39' W 122°20'5 5.2
2018-Apr-16 02:37N 47°37' W 122°14'1 5.7
2018-Apr-16 02:27N 47°37' W 122°15'3 5.5
2018-Apr-16 01:51N 47°39' W 122°19'1 1.3
2018-Apr-16 00:58N 47°38' W 122°20'3 5.9
2018-Apr-16 00:30N 47°40' W 122°24'1 1.8
2018-Apr-15 23:58N 47°41' W 122°24'0 0.0
2018-Apr-15 23:28N 47°41' W 122°24'0 0.0
2018-Apr-15 22:56N 47°41' W 122°24'0 0.0
2018-Apr-15 22:29N 47°41' W 122°24'0 0.0
2018-Apr-15 21:56N 47°41' W 122°24'0 0.0
2018-Apr-15 21:29N 47°41' W 122°24'0 0.0
2018-Apr-15 20:50N 47°41' W 122°24'0 0.0
2018-Apr-15 20:26N 47°41' W 122°24'0 0.0
2018-Apr-15 19:56N 47°41' W 122°24'0 0.0
2018-Apr-15 19:20N 47°41' W 122°24'0 0.0
2018-Apr-15 18:59N 47°41' W 122°24'0 0.0
2018-Apr-15 18:26N 47°41' W 122°24'0 0.0
2018-Apr-15 17:56N 47°41' W 122°24'0 0.0
2018-Apr-15 17:29N 47°41' W 122°24'0 0.0
2018-Apr-15 16:59N 47°41' W 122°24'0 0.0
2018-Apr-15 16:29N 47°41' W 122°24'0 0.0
2018-Apr-15 15:56N 47°41' W 122°24'0 0.0
2018-Apr-15 15:26N 47°41' W 122°24'0 0.0
2018-Apr-15 14:59N 47°41' W 122°24'0 0.0
2018-Apr-15 14:29N 47°41' W 122°24'0 0.0
2018-Apr-15 13:59N 47°41' W 122°24'0 0.0
2018-Apr-15 13:29N 47°41' W 122°24'0 0.0
2018-Apr-15 12:59N 47°41' W 122°24'0 0.0
2018-Apr-15 12:29N 47°41' W 122°24'0 0.0
2018-Apr-15 11:59N 47°41' W 122°24'0 0.0
2018-Apr-15 11:29N 47°41' W 122°24'0 0.0
2018-Apr-15 10:59N 47°41' W 122°24'0 0.0
2018-Apr-15 10:29N 47°41' W 122°24'0 0.0
2018-Apr-15 09:59N 47°41' W 122°24'0 0.0
2018-Apr-15 09:29N 47°41' W 122°24'0 0.0
2018-Apr-15 08:59N 47°41' W 122°24'0 0.0
2018-Apr-15 08:29N 47°41' W 122°24'0 0.0
2018-Apr-15 07:59N 47°41' W 122°24'0 0.0
2018-Apr-15 07:26N 47°41' W 122°24'0 0.0
2018-Apr-15 06:50N 47°41' W 122°24'0 0.0
2018-Apr-15 06:29N 47°41' W 122°24'0 0.0
2018-Apr-15 05:59N 47°41' W 122°24'0 0.0
2018-Apr-15 05:29N 47°41' W 122°24'0 0.0
2018-Apr-15 04:56N 47°41' W 122°24'0 0.0
2018-Apr-15 04:26N 47°41' W 122°24'0 0.0
2018-Apr-15 03:50N 47°41' W 122°24'0 0.0
2018-Apr-15 03:29N 47°41' W 122°24'0 0.0
2018-Apr-15 02:59N 47°41' W 122°24'0 0.0
2018-Apr-15 02:29N 47°41' W 122°24'0 0.0
2018-Apr-15 01:59N 47°41' W 122°24'0 0.0
2018-Apr-15 01:29N 47°41' W 122°24'0 0.0
2018-Apr-15 00:59N 47°41' W 122°24'0 0.0
2018-Apr-15 00:29N 47°41' W 122°24'0 0.0
2018-Apr-14 23:59N 47°41' W 122°24'0 0.0
2018-Apr-14 23:29N 47°41' W 122°24'0 0.0
2018-Apr-14 22:59N 47°41' W 122°24'0 0.0
2018-Apr-14 22:26N 47°41' W 122°24'0 0.0
2018-Apr-14 21:56N 47°41' W 122°24'0 0.0
2018-Apr-14 21:29N 47°41' W 122°24'0 0.0
2018-Apr-14 20:59N 47°41' W 122°24'0 0.0
2018-Apr-14 20:29N 47°41' W 122°24'0 0.0
2018-Apr-14 19:59N 47°41' W 122°24'0 0.0
2018-Apr-14 19:29N 47°41' W 122°24'0 0.0
2018-Apr-14 18:59N 47°41' W 122°24'0 0.0
2018-Apr-14 18:29N 47°41' W 122°24'0 0.0
2018-Apr-14 17:59N 47°41' W 122°24'0 0.0
2018-Apr-14 17:26N 47°41' W 122°24'0 0.0
2018-Apr-14 16:59N 47°41' W 122°24'0 0.0
2018-Apr-14 16:29N 47°41' W 122°24'0 0.0
2018-Apr-14 15:56N 47°41' W 122°24'0 0.0
2018-Apr-14 15:29N 47°41' W 122°24'0 0.0
2018-Apr-14 14:59N 47°41' W 122°24'0 0.0
2018-Apr-14 14:29N 47°41' W 122°24'0 0.0
2018-Apr-14 13:59N 47°41' W 122°24'0 0.0
2018-Apr-14 13:29N 47°41' W 122°24'0 0.0
2018-Apr-14 12:59N 47°41' W 122°24'0 0.0
2018-Apr-14 12:29N 47°41' W 122°24'0 0.0
2018-Apr-14 11:59N 47°41' W 122°24'0 0.0
2018-Apr-14 11:23N 47°41' W 122°24'0 0.0
2018-Apr-14 10:59N 47°41' W 122°24'0 0.0
2018-Apr-14 10:29N 47°41' W 122°24'0 0.0
2018-Apr-14 09:59N 47°41' W 122°24'0 0.0
2018-Apr-14 09:29N 47°41' W 122°24'0 0.0
2018-Apr-14 08:59N 47°41' W 122°24'0 0.0
2018-Apr-14 08:29N 47°41' W 122°24'0 0.0
2018-Apr-14 07:59N 47°41' W 122°24'0 0.0
2018-Apr-14 07:29N 47°41' W 122°24'0 0.0
2018-Apr-14 06:59N 47°41' W 122°24'0 0.0
2018-Apr-14 06:28N 47°41' W 122°24'0 0.0
2018-Apr-14 05:58N 47°41' W 122°24'0 0.0
2018-Apr-14 05:28N 47°41' W 122°24'0 0.0
2018-Apr-14 04:58N 47°41' W 122°24'0 0.0
2018-Apr-14 04:28N 47°41' W 122°24'0 0.0
2018-Apr-14 03:58N 47°41' W 122°24'0 0.0
2018-Apr-14 03:28N 47°41' W 122°24'0 0.0
2018-Apr-14 02:58N 47°41' W 122°24'0 0.0
2018-Apr-14 02:28N 47°41' W 122°24'0 0.0
2018-Apr-14 01:58N 47°41' W 122°24'0 0.0
2018-Apr-14 01:28N 47°41' W 122°24'0 0.0
2018-Apr-14 00:58N 47°41' W 122°24'0 0.0
2018-Apr-14 00:28N 47°41' W 122°24'0 0.0
2018-Apr-13 23:58N 47°41' W 122°24'0 0.0
2018-Apr-13 23:28N 47°41' W 122°24'0 0.0
2018-Apr-13 22:58N 47°41' W 122°24'0 0.0
2018-Apr-13 22:28N 47°41' W 122°24'0 0.0
2018-Apr-13 21:58N 47°41' W 122°24'0 0.0
2018-Apr-13 21:28N 47°41' W 122°24'0 0.0
2018-Apr-13 20:58N 47°41' W 122°24'0 0.0
2018-Apr-13 20:28N 47°41' W 122°24'0 0.0
2018-Apr-13 19:52N 47°41' W 122°24'0 0.0
2018-Apr-13 19:28N 47°41' W 122°24'0 0.0
2018-Apr-13 18:58N 47°41' W 122°24'0 0.0
2018-Apr-13 18:28N 47°41' W 122°24'0 0.0
2018-Apr-13 17:55N 47°41' W 122°24'0 0.0
2018-Apr-13 17:22N 47°41' W 122°24'0 0.0
2018-Apr-13 16:52N 47°41' W 122°24'0 0.0
2018-Apr-13 15:40N 47°41' W 122°24'0 0.0
2018-Apr-13 15:28N 47°41' W 122°24'0 0.0
2018-Apr-13 14:28N 47°41' W 122°24'0 0.0
2018-Apr-13 13:58N 47°41' W 122°24'0 0.0
2018-Apr-13 13:25N 47°41' W 122°24'0 0.0
2018-Apr-13 12:58N 47°41' W 122°24'0 0.0
2018-Apr-13 12:28N 47°41' W 122°24'0 0.0
2018-Apr-13 11:58N 47°41' W 122°24'0 0.0
2018-Apr-13 11:28N 47°41' W 122°24'0 0.0
2018-Apr-13 10:46N 47°41' W 122°24'0 0.0
2018-Apr-13 10:28N 47°41' W 122°24'0 0.0
2018-Apr-13 09:58N 47°41' W 122°24'0 0.0
2018-Apr-13 09:22N 47°41' W 122°24'0 0.0
2018-Apr-13 08:55N 47°41' W 122°24'0 0.0
2018-Apr-13 08:28N 47°41' W 122°24'0 0.0
2018-Apr-13 07:52N 47°41' W 122°24'0 0.0
2018-Apr-13 07:25N 47°41' W 122°24'0 0.0
2018-Apr-13 06:58N 47°41' W 122°24'0 0.0
2018-Apr-13 06:28N 47°41' W 122°24'0 0.0
2018-Apr-13 05:58N 47°41' W 122°24'0 0.0
2018-Apr-13 05:28N 47°41' W 122°24'0 0.0
2018-Apr-13 04:58N 47°41' W 122°24'0 0.0
2018-Apr-13 04:22N 47°41' W 122°24'0 0.0
2018-Apr-13 03:58N 47°41' W 122°24'0 0.0
2018-Apr-13 03:28N 47°41' W 122°24'0 0.0
2018-Apr-13 02:58N 47°41' W 122°24'0 0.0
2018-Apr-13 02:28N 47°41' W 122°24'0 0.0
2018-Apr-13 01:58N 47°41' W 122°24'0 0.0
2018-Apr-13 01:28N 47°41' W 122°24'0 0.0
2018-Apr-13 00:58N 47°41' W 122°24'0 0.0
2018-Apr-13 00:28N 47°41' W 122°24'  
Track history (hours):
 
Tides and Currents Weather Stations Pressure Air Temp Water Temp Dewpoint Dewpoint Depression Visibility Wind Speed Wind Dir Waves Ship Positions

Callsign SMTGJY (name unknown)

Last reported at 2018-Apr-23 00:00 UTC. Time now 2018-May-25 01:07 UTC.
Position N 47°36' W 122°25'.
Warning: this ship's position is 32 days out of date.

Date/timePositionNaut miles runAvg speedWind from/ knotsBaromVisibWave heightAir tempDewpointWater temp
2018-Apr-23 00:00N 47°36' W 122°25'1 1.5
2018-Apr-22 23:30N 47°35' W 122°25'4 8.5
2018-Apr-22 22:59N 47°34' W 122°32'9 2.0
2018-Apr-22 18:20N 47°44' W 122°32'3 8.5
2018-Apr-22 18:01N 47°45' W 122°28'4 8.4
2018-Apr-22 17:29N 47°49' W 122°29'4 8.4
2018-Apr-22 17:00N 47°53' W 122°30'2 0.0
2018-Apr-20 21:37N 47°54' W 122°31'1 9.5
2018-Apr-20 21:30N 47°53' W 122°31'5 9.5
2018-Apr-20 21:00N 47°49' W 122°28'5 9.2
2018-Apr-20 20:31N 47°45' W 122°26'4 7.3
2018-Apr-20 20:01N 47°41' W 122°24'0 0.6
2018-Apr-20 19:28N 47°41' W 122°24'0 0.0
2018-Apr-20 18:58N 47°41' W 122°24'0 0.0
2018-Apr-20 18:28N 47°41' W 122°24'0 0.0
2018-Apr-20 17:58N 47°41' W 122°24'0 0.0
2018-Apr-20 17:28N 47°41' W 122°24'0 0.0
2018-Apr-20 16:58N 47°41' W 122°24'0 0.0
2018-Apr-20 16:28N 47°41' W 122°24'0 0.0
2018-Apr-20 15:58N 47°41' W 122°24'0 0.0
2018-Apr-20 15:28N 47°41' W 122°24'0 0.0
2018-Apr-20 14:58N 47°41' W 122°24'0 0.0
2018-Apr-20 14:29N 47°41' W 122°24'0 0.0
2018-Apr-20 13:59N 47°41' W 122°24'0 0.0
2018-Apr-20 13:29N 47°41' W 122°24'0 0.0
2018-Apr-20 12:59N 47°41' W 122°24'0 0.0
2018-Apr-20 12:29N 47°41' W 122°24'0 0.0
2018-Apr-20 11:59N 47°41' W 122°24'0 0.0
2018-Apr-20 11:29N 47°41' W 122°24'0 0.0
2018-Apr-20 10:59N 47°41' W 122°24'0 0.0
2018-Apr-20 10:29N 47°41' W 122°24'0 0.0
2018-Apr-20 09:59N 47°41' W 122°24'0 0.0
2018-Apr-20 09:29N 47°41' W 122°24'0 0.0
2018-Apr-20 08:59N 47°41' W 122°24'0 0.0
2018-Apr-20 08:29N 47°41' W 122°24'0 0.0
2018-Apr-20 07:59N 47°41' W 122°24'0 0.0
2018-Apr-20 07:29N 47°41' W 122°24'0 0.0
2018-Apr-20 06:56N 47°41' W 122°24'0 0.0
2018-Apr-20 06:29N 47°41' W 122°24'0 0.0
2018-Apr-20 05:59N 47°41' W 122°24'0 0.0
2018-Apr-20 05:29N 47°41' W 122°24'0 0.0
2018-Apr-20 04:59N 47°41' W 122°24'0 0.0
2018-Apr-20 04:29N 47°41' W 122°24'0 0.0
2018-Apr-20 03:59N 47°41' W 122°24'0 0.0
2018-Apr-20 03:29N 47°41' W 122°24'0 0.0
2018-Apr-20 02:59N 47°41' W 122°24'0 0.0
2018-Apr-20 02:29N 47°41' W 122°24'0 0.0
2018-Apr-20 01:56N 47°41' W 122°24'0 0.0
2018-Apr-20 01:29N 47°41' W 122°24'0 0.0
2018-Apr-20 00:59N 47°41' W 122°24'0 0.0
2018-Apr-20 00:29N 47°41' W 122°24'0 0.0
2018-Apr-19 23:59N 47°41' W 122°24'0 0.0
2018-Apr-19 23:29N 47°41' W 122°24'0 0.0
2018-Apr-19 22:59N 47°41' W 122°24'0 0.0
2018-Apr-19 22:29N 47°41' W 122°24'0 0.0
2018-Apr-19 21:59N 47°41' W 122°24'0 0.0
2018-Apr-19 21:29N 47°41' W 122°24'0 0.0
2018-Apr-19 20:59N 47°41' W 122°24'0 0.0
2018-Apr-19 20:29N 47°41' W 122°24'0 0.0
2018-Apr-19 19:59N 47°41' W 122°24'0 0.0
2018-Apr-19 19:29N 47°41' W 122°24'0 0.0
2018-Apr-19 18:59N 47°41' W 122°24'0 0.0
2018-Apr-19 18:29N 47°41' W 122°24'0 0.0
2018-Apr-19 17:59N 47°41' W 122°24'0 0.0
2018-Apr-19 17:29N 47°41' W 122°24'0 0.0
2018-Apr-19 16:59N 47°41' W 122°24'0 0.0
2018-Apr-19 16:29N 47°41' W 122°24'0 0.0
2018-Apr-19 15:59N 47°41' W 122°24'0 0.0
2018-Apr-19 15:26N 47°41' W 122°24'0 0.0
2018-Apr-19 14:59N 47°41' W 122°24'0 0.0
2018-Apr-19 14:29N 47°41' W 122°24'0 0.0
2018-Apr-19 13:59N 47°41' W 122°24'0 0.0
2018-Apr-19 13:29N 47°41' W 122°24'0 0.0
2018-Apr-19 12:59N 47°41' W 122°24'0 0.0
2018-Apr-19 12:29N 47°41' W 122°24'0 0.0
2018-Apr-19 11:56N 47°41' W 122°24'0 0.0
2018-Apr-19 11:29N 47°41' W 122°24'0 0.0
2018-Apr-19 10:59N 47°41' W 122°24'0 0.0
2018-Apr-19 10:29N 47°41' W 122°24'0 0.0
2018-Apr-19 09:59N 47°41' W 122°24'0 0.0
2018-Apr-19 09:29N 47°41' W 122°24'0 0.0
2018-Apr-19 08:59N 47°41' W 122°24'0 0.0
2018-Apr-19 08:29N 47°41' W 122°24'0 0.0
2018-Apr-19 07:59N 47°41' W 122°24'0 0.0
2018-Apr-19 07:29N 47°41' W 122°24'0 0.0
2018-Apr-19 06:59N 47°41' W 122°24'0 0.0
2018-Apr-19 06:29N 47°41' W 122°24'0 0.0
2018-Apr-19 05:59N 47°41' W 122°24'0 0.0
2018-Apr-19 05:26N 47°41' W 122°24'0 0.0
2018-Apr-19 04:59N 47°41' W 122°24'0 0.0
2018-Apr-19 04:29N 47°41' W 122°24'0 0.0
2018-Apr-19 03:59N 47°41' W 122°24'0 0.0
2018-Apr-19 03:29N 47°41' W 122°24'0 0.0
2018-Apr-19 02:59N 47°41' W 122°24'0 0.0
2018-Apr-19 02:29N 47°41' W 122°24'0 0.0
2018-Apr-19 01:59N 47°41' W 122°24'0 0.0
2018-Apr-19 01:29N 47°41' W 122°24'0 0.0
2018-Apr-19 00:59N 47°41' W 122°24'0 0.0
2018-Apr-19 00:29N 47°41' W 122°24'0 0.0
2018-Apr-18 23:59N 47°41' W 122°24'0 0.0
2018-Apr-18 23:29N 47°41' W 122°24'0 0.0
2018-Apr-18 22:59N 47°41' W 122°24'0 0.0
2018-Apr-18 22:29N 47°41' W 122°24'0 0.0
2018-Apr-18 21:59N 47°41' W 122°24'0 0.0
2018-Apr-18 21:29N 47°41' W 122°24'0 0.0
2018-Apr-18 20:59N 47°41' W 122°24'0 0.0
2018-Apr-18 20:29N 47°41' W 122°24'0 0.0
2018-Apr-18 19:59N 47°41' W 122°24'0 0.0
2018-Apr-18 19:29N 47°41' W 122°24'0 0.0
2018-Apr-18 18:59N 47°41' W 122°24'0 0.0
2018-Apr-18 18:29N 47°41' W 122°24'0 0.0
2018-Apr-18 17:59N 47°41' W 122°24'0 0.0
2018-Apr-18 17:26N 47°41' W 122°24'0 0.0
2018-Apr-18 16:59N 47°41' W 122°24'0 0.0
2018-Apr-18 16:29N 47°41' W 122°24'0 0.0
2018-Apr-18 15:59N 47°41' W 122°24'0 0.0
2018-Apr-18 15:29N 47°41' W 122°24'0 0.0
2018-Apr-18 14:59N 47°41' W 122°24'0 0.0
2018-Apr-18 14:26N 47°41' W 122°24'0 0.0
2018-Apr-18 13:56N 47°41' W 122°24'0 0.0
2018-Apr-18 13:26N 47°41' W 122°24'0 0.0
2018-Apr-18 12:59N 47°41' W 122°24'0 0.0
2018-Apr-18 12:29N 47°41' W 122°24'0 0.0
2018-Apr-18 11:59N 47°41' W 122°24'0 0.0
2018-Apr-18 11:29N 47°41' W 122°24'0 0.0
2018-Apr-18 10:59N 47°41' W 122°24'0 0.0
2018-Apr-18 10:29N 47°41' W 122°24'0 0.0
2018-Apr-18 09:59N 47°41' W 122°24'0 0.0
2018-Apr-18 09:29N 47°41' W 122°24'0 0.0
2018-Apr-18 08:59N 47°41' W 122°24'0 0.0
2018-Apr-18 08:29N 47°41' W 122°24'0 0.0
2018-Apr-18 07:59N 47°41' W 122°24'0 0.0
2018-Apr-18 07:29N 47°41' W 122°24'0 0.0
2018-Apr-18 06:59N 47°41' W 122°24'0 0.0
2018-Apr-18 06:29N 47°41' W 122°24'0 0.0
2018-Apr-18 05:59N 47°41' W 122°24'0 0.0
2018-Apr-18 05:29N 47°41' W 122°24'0 0.0
2018-Apr-18 04:59N 47°41' W 122°24'0 0.0
2018-Apr-18 04:29N 47°41' W 122°24'0 0.0
2018-Apr-18 03:59N 47°41' W 122°24'0 0.0
2018-Apr-18 03:29N 47°41' W 122°24'0 0.0
2018-Apr-18 02:59N 47°41' W 122°24'0 0.0
2018-Apr-18 02:29N 47°41' W 122°24'0 0.0
2018-Apr-18 01:59N 47°41' W 122°24'0 0.0
2018-Apr-18 01:29N 47°41' W 122°24'0 0.0
2018-Apr-18 00:59N 47°41' W 122°24'0 0.0
2018-Apr-18 00:29N 47°41' W 122°24'0 0.0
2018-Apr-17 23:59N 47°41' W 122°24'0 0.0
2018-Apr-17 23:29N 47°41' W 122°24'0 0.0
2018-Apr-17 22:59N 47°41' W 122°24'0 0.0
2018-Apr-17 22:29N 47°41' W 122°24'0 0.0
2018-Apr-17 21:59N 47°41' W 122°24'0 0.0
2018-Apr-17 21:29N 47°41' W 122°24'0 0.0
2018-Apr-17 20:59N 47°41' W 122°24'0 0.0
2018-Apr-17 20:29N 47°41' W 122°24'0 0.0
2018-Apr-17 19:59N 47°41' W 122°24'0 0.0
2018-Apr-17 19:29N 47°41' W 122°24'0 0.0
2018-Apr-17 18:59N 47°41' W 122°24'0 0.0
2018-Apr-17 18:29N 47°41' W 122°24'0 0.0
2018-Apr-17 17:59N 47°41' W 122°24'0 0.0
2018-Apr-17 17:29N 47°41' W 122°24'0 0.0
2018-Apr-17 16:59N 47°41' W 122°24'0 0.0
2018-Apr-17 16:29N 47°41' W 122°24'0 0.0
2018-Apr-17 15:56N 47°41' W 122°24'0 0.0
2018-Apr-17 15:29N 47°41' W 122°24'0 0.0
2018-Apr-17 14:59N 47°41' W 122°24'0 0.0
2018-Apr-17 14:29N 47°41' W 122°24'0 0.0
2018-Apr-17 13:59N 47°41' W 122°24'0 0.0
2018-Apr-17 13:28N 47°41' W 122°24'0 0.0
2018-Apr-17 12:49N 47°41' W 122°24'0 0.0
2018-Apr-17 12:28N 47°41' W 122°24'0 0.0
2018-Apr-17 11:58N 47°41' W 122°24'0 0.0
2018-Apr-17 11:29N 47°41' W 122°24'0 0.0
2018-Apr-17 10:59N 47°41' W 122°24'0 0.0
2018-Apr-17 10:29N 47°41' W 122°24'0 0.0
2018-Apr-17 09:59N 47°41' W 122°24'0 0.0
2018-Apr-17 09:29N 47°41' W 122°24'0 0.0
2018-Apr-17 08:59N 47°41' W 122°24'0 0.0
2018-Apr-17 08:29N 47°41' W 122°24'0 0.0
2018-Apr-17 07:59N 47°41' W 122°24'0 0.0
2018-Apr-17 07:29N 47°41' W 122°24'0 0.0
2018-Apr-17 06:58N 47°41' W 122°24'0 0.0
2018-Apr-17 06:28N 47°41' W 122°24'0 0.0
2018-Apr-17 05:59N 47°41' W 122°24'0 0.0
2018-Apr-17 05:29N 47°41' W 122°24'0 0.0
2018-Apr-17 04:59N 47°41' W 122°24'0 0.0
2018-Apr-17 04:29N 47°41' W 122°24'0 0.0
2018-Apr-17 03:59N 47°41' W 122°24'0 0.0
2018-Apr-17 03:29N 47°41' W 122°24'0 0.0
2018-Apr-17 02:59N 47°41' W 122°24'0 0.0
2018-Apr-17 02:29N 47°41' W 122°24'0 0.0
2018-Apr-17 01:59N 47°41' W 122°24'0 0.0
2018-Apr-17 01:29N 47°41' W 122°24'0 0.0
2018-Apr-17 00:59N 47°41' W 122°24'0 0.0
2018-Apr-17 00:29N 47°41' W 122°24'0 0.0
2018-Apr-16 23:59N 47°41' W 122°24'0 0.0
2018-Apr-16 23:29N 47°41' W 122°24'0 0.0
2018-Apr-16 22:59N 47°41' W 122°24'0 0.0
2018-Apr-16 22:29N 47°41' W 122°24'0 0.0
2018-Apr-16 21:59N 47°41' W 122°24'0 0.0
2018-Apr-16 21:29N 47°41' W 122°24'0 0.0
2018-Apr-16 20:59N 47°41' W 122°24'0 0.0
2018-Apr-16 20:29N 47°41' W 122°24'0 0.0
2018-Apr-16 19:59N 47°41' W 122°24'0 0.0
2018-Apr-16 19:29N 47°41' W 122°24'0 0.0
2018-Apr-16 18:59N 47°41' W 122°24'0 0.0
2018-Apr-16 18:29N 47°41' W 122°24'0 0.0
2018-Apr-16 17:59N 47°41' W 122°24'0 0.0
2018-Apr-16 17:29N 47°41' W 122°24'0 0.0
2018-Apr-16 16:59N 47°41' W 122°24'0 0.0
2018-Apr-16 16:29N 47°41' W 122°24'0 0.0
2018-Apr-16 15:59N 47°41' W 122°24'0 0.0
2018-Apr-16 15:29N 47°41' W 122°24'0 0.0
2018-Apr-16 14:59N 47°41' W 122°24'0 0.0
2018-Apr-16 14:29N 47°41' W 122°24'0 0.0
2018-Apr-16 13:59N 47°41' W 122°24'0 0.0
2018-Apr-16 13:29N 47°41' W 122°24'0 0.0
2018-Apr-16 12:59N 47°41' W 122°24'0 0.0
2018-Apr-16 12:29N 47°41' W 122°24'0 0.0
2018-Apr-16 11:56N 47°41' W 122°24'0 0.0
2018-Apr-16 11:29N 47°41' W 122°24'0 0.0
2018-Apr-16 10:59N 47°41' W 122°24'0 0.0
2018-Apr-16 10:29N 47°41' W 122°24'0 0.0
2018-Apr-16 09:59N 47°41' W 122°24'0 0.0
2018-Apr-16 09:29N 47°41' W 122°24'0 0.0
2018-Apr-16 08:59N 47°41' W 122°24'0 0.0
2018-Apr-16 08:29N 47°41' W 122°24'0 0.0
2018-Apr-16 07:56N 47°41' W 122°24'0 0.0
2018-Apr-16 07:29N 47°41' W 122°24'0 0.0
2018-Apr-16 07:00N 47°41' W 122°24'0 0.0
2018-Apr-16 06:24N 47°41' W 122°24'0 0.0
2018-Apr-16 06:00N 47°41' W 122°24'0 0.0
2018-Apr-16 05:30N 47°41' W 122°24'1 1.8
2018-Apr-16 04:58N 47°40' W 122°24'2 3.9
2018-Apr-16 04:30N 47°39' W 122°21'1 2.0
2018-Apr-16 03:49N 47°38' W 122°20'1 3.6
2018-Apr-16 03:30N 47°39' W 122°20'5 5.2
2018-Apr-16 02:37N 47°37' W 122°14'1 5.7
2018-Apr-16 02:27N 47°37' W 122°15'3 5.5
2018-Apr-16 01:51N 47°39' W 122°19'1 1.3
2018-Apr-16 00:58N 47°38' W 122°20'3 5.9
2018-Apr-16 00:30N 47°40' W 122°24'1 1.8
2018-Apr-15 23:58N 47°41' W 122°24'0 0.0
2018-Apr-15 23:28N 47°41' W 122°24'0 0.0
2018-Apr-15 22:56N 47°41' W 122°24'0 0.0
2018-Apr-15 22:29N 47°41' W 122°24'0 0.0
2018-Apr-15 21:56N 47°41' W 122°24'0 0.0
2018-Apr-15 21:29N 47°41' W 122°24'0 0.0
2018-Apr-15 20:50N 47°41' W 122°24'0 0.0
2018-Apr-15 20:26N 47°41' W 122°24'0 0.0
2018-Apr-15 19:56N 47°41' W 122°24'0 0.0
2018-Apr-15 19:20N 47°41' W 122°24'0 0.0
2018-Apr-15 18:59N 47°41' W 122°24'0 0.0
2018-Apr-15 18:26N 47°41' W 122°24'0 0.0
2018-Apr-15 17:56N 47°41' W 122°24'0 0.0
2018-Apr-15 17:29N 47°41' W 122°24'0 0.0
2018-Apr-15 16:59N 47°41' W 122°24'0 0.0
2018-Apr-15 16:29N 47°41' W 122°24'0 0.0
2018-Apr-15 15:56N 47°41' W 122°24'0 0.0
2018-Apr-15 15:26N 47°41' W 122°24'0 0.0
2018-Apr-15 14:59N 47°41' W 122°24'0 0.0
2018-Apr-15 14:29N 47°41' W 122°24'0 0.0
2018-Apr-15 13:59N 47°41' W 122°24'0 0.0
2018-Apr-15 13:29N 47°41' W 122°24'0 0.0
2018-Apr-15 12:59N 47°41' W 122°24'0 0.0
2018-Apr-15 12:29N 47°41' W 122°24'0 0.0
2018-Apr-15 11:59N 47°41' W 122°24'0 0.0
2018-Apr-15 11:29N 47°41' W 122°24'0 0.0
2018-Apr-15 10:59N 47°41' W 122°24'0 0.0
2018-Apr-15 10:29N 47°41' W 122°24'0 0.0
2018-Apr-15 09:59N 47°41' W 122°24'0 0.0
2018-Apr-15 09:29N 47°41' W 122°24'0 0.0
2018-Apr-15 08:59N 47°41' W 122°24'0 0.0
2018-Apr-15 08:29N 47°41' W 122°24'0 0.0
2018-Apr-15 07:59N 47°41' W 122°24'0 0.0
2018-Apr-15 07:26N 47°41' W 122°24'0 0.0
2018-Apr-15 06:50N 47°41' W 122°24'0 0.0
2018-Apr-15 06:29N 47°41' W 122°24'0 0.0
2018-Apr-15 05:59N 47°41' W 122°24'0 0.0
2018-Apr-15 05:29N 47°41' W 122°24'0 0.0
2018-Apr-15 04:56N 47°41' W 122°24'0 0.0
2018-Apr-15 04:26N 47°41' W 122°24'0 0.0
2018-Apr-15 03:50N 47°41' W 122°24'0 0.0
2018-Apr-15 03:29N 47°41' W 122°24'0 0.0
2018-Apr-15 02:59N 47°41' W 122°24'0 0.0
2018-Apr-15 02:29N 47°41' W 122°24'0 0.0
2018-Apr-15 01:59N 47°41' W 122°24'0 0.0
2018-Apr-15 01:29N 47°41' W 122°24'0 0.0
2018-Apr-15 00:59N 47°41' W 122°24'0 0.0
2018-Apr-15 00:29N 47°41' W 122°24'0 0.0
2018-Apr-14 23:59N 47°41' W 122°24'0 0.0
2018-Apr-14 23:29N 47°41' W 122°24'0 0.0
2018-Apr-14 22:59N 47°41' W 122°24'0 0.0
2018-Apr-14 22:26N 47°41' W 122°24'0 0.0
2018-Apr-14 21:56N 47°41' W 122°24'0 0.0
2018-Apr-14 21:29N 47°41' W 122°24'0 0.0
2018-Apr-14 20:59N 47°41' W 122°24'0 0.0
2018-Apr-14 20:29N 47°41' W 122°24'0 0.0
2018-Apr-14 19:59N 47°41' W 122°24'0 0.0
2018-Apr-14 19:29N 47°41' W 122°24'0 0.0
2018-Apr-14 18:59N 47°41' W 122°24'0 0.0
2018-Apr-14 18:29N 47°41' W 122°24'0 0.0
2018-Apr-14 17:59N 47°41' W 122°24'0 0.0
2018-Apr-14 17:26N 47°41' W 122°24'0 0.0
2018-Apr-14 16:59N 47°41' W 122°24'0 0.0
2018-Apr-14 16:29N 47°41' W 122°24'0 0.0
2018-Apr-14 15:56N 47°41' W 122°24'0 0.0
2018-Apr-14 15:29N 47°41' W 122°24'0 0.0
2018-Apr-14 14:59N 47°41' W 122°24'0 0.0
2018-Apr-14 14:29N 47°41' W 122°24'0 0.0
2018-Apr-14 13:59N 47°41' W 122°24'0 0.0
2018-Apr-14 13:29N 47°41' W 122°24'0 0.0
2018-Apr-14 12:59N 47°41' W 122°24'0 0.0
2018-Apr-14 12:29N 47°41' W 122°24'0 0.0
2018-Apr-14 11:59N 47°41' W 122°24'0 0.0
2018-Apr-14 11:23N 47°41' W 122°24'0 0.0
2018-Apr-14 10:59N 47°41' W 122°24'0 0.0
2018-Apr-14 10:29N 47°41' W 122°24'0 0.0
2018-Apr-14 09:59N 47°41' W 122°24'0 0.0
2018-Apr-14 09:29N 47°41' W 122°24'0 0.0
2018-Apr-14 08:59N 47°41' W 122°24'0 0.0
2018-Apr-14 08:29N 47°41' W 122°24'0 0.0
2018-Apr-14 07:59N 47°41' W 122°24'0 0.0
2018-Apr-14 07:29N 47°41' W 122°24'0 0.0
2018-Apr-14 06:59N 47°41' W 122°24'0 0.0
2018-Apr-14 06:28N 47°41' W 122°24'0 0.0
2018-Apr-14 05:58N 47°41' W 122°24'0 0.0
2018-Apr-14 05:28N 47°41' W 122°24'0 0.0
2018-Apr-14 04:58N 47°41' W 122°24'0 0.0
2018-Apr-14 04:28N 47°41' W 122°24'0 0.0
2018-Apr-14 03:58N 47°41' W 122°24'0 0.0
2018-Apr-14 03:28N 47°41' W 122°24'0 0.0
2018-Apr-14 02:58N 47°41' W 122°24'0 0.0
2018-Apr-14 02:28N 47°41' W 122°24'0 0.0
2018-Apr-14 01:58N 47°41' W 122°24'0 0.0
2018-Apr-14 01:28N 47°41' W 122°24'0 0.0
2018-Apr-14 00:58N 47°41' W 122°24'0 0.0
2018-Apr-14 00:28N 47°41' W 122°24'0 0.0
2018-Apr-13 23:58N 47°41' W 122°24'0 0.0
2018-Apr-13 23:28N 47°41' W 122°24'0 0.0
2018-Apr-13 22:58N 47°41' W 122°24'0 0.0
2018-Apr-13 22:28N 47°41' W 122°24'0 0.0
2018-Apr-13 21:58N 47°41' W 122°24'0 0.0
2018-Apr-13 21:28N 47°41' W 122°24'0 0.0
2018-Apr-13 20:58N 47°41' W 122°24'0 0.0
2018-Apr-13 20:28N 47°41' W 122°24'0 0.0
2018-Apr-13 19:52N 47°41' W 122°24'0 0.0
2018-Apr-13 19:28N 47°41' W 122°24'0 0.0
2018-Apr-13 18:58N 47°41' W 122°24'0 0.0
2018-Apr-13 18:28N 47°41' W 122°24'0 0.0
2018-Apr-13 17:55N 47°41' W 122°24'0 0.0
2018-Apr-13 17:22N 47°41' W 122°24'0 0.0
2018-Apr-13 16:52N 47°41' W 122°24'0 0.0
2018-Apr-13 15:40N 47°41' W 122°24'0 0.0
2018-Apr-13 15:28N 47°41' W 122°24'0 0.0
2018-Apr-13 14:28N 47°41' W 122°24'0 0.0
2018-Apr-13 13:58N 47°41' W 122°24'0 0.0
2018-Apr-13 13:25N 47°41' W 122°24'0 0.0
2018-Apr-13 12:58N 47°41' W 122°24'0 0.0
2018-Apr-13 12:28N 47°41' W 122°24'0 0.0
2018-Apr-13 11:58N 47°41' W 122°24'0 0.0
2018-Apr-13 11:28N 47°41' W 122°24'0 0.0
2018-Apr-13 10:46N 47°41' W 122°24'0 0.0
2018-Apr-13 10:28N 47°41' W 122°24'0 0.0
2018-Apr-13 09:58N 47°41' W 122°24'0 0.0
2018-Apr-13 09:22N 47°41' W 122°24'0 0.0
2018-Apr-13 08:55N 47°41' W 122°24'0 0.0
2018-Apr-13 08:28N 47°41' W 122°24'0 0.0
2018-Apr-13 07:52N 47°41' W 122°24'0 0.0
2018-Apr-13 07:25N 47°41' W 122°24'0 0.0
2018-Apr-13 06:58N 47°41' W 122°24'0 0.0
2018-Apr-13 06:28N 47°41' W 122°24'0 0.0
2018-Apr-13 05:58N 47°41' W 122°24'0 0.0
2018-Apr-13 05:28N 47°41' W 122°24'0 0.0
2018-Apr-13 04:58N 47°41' W 122°24'0 0.0
2018-Apr-13 04:22N 47°41' W 122°24'0 0.0
2018-Apr-13 03:58N 47°41' W 122°24'0 0.0
2018-Apr-13 03:28N 47°41' W 122°24'0 0.0
2018-Apr-13 02:58N 47°41' W 122°24'0 0.0
2018-Apr-13 02:28N 47°41' W 122°24'0 0.0
2018-Apr-13 01:58N 47°41' W 122°24'0 0.0
2018-Apr-13 01:28N 47°41' W 122°24'0 0.0
2018-Apr-13 00:58N 47°41' W 122°24'0 0.0
2018-Apr-13 00:28N 47°41' W 122°24'  

Dump ship's entire track history